Old Milo, Arkansas
Current Conditions -  °F | °C
As of 4:55 PM on Saturday 25 Oct 2014 (Local Time) from KBQP Reporting Station
Clear Clear  
Wind Chill: 28°   Ceiling: Unl
Heat Index: 28°   Visibility: 10mi
Dew Point: 17°   Wind: 7mph
Humidity: 51%   Direction: 250°WSW
Pressure: 30.07"   Gusts: NA
Location:  33.1762°N, 91.7595°W
Report Text: KBQP 252155Z AUTO 25006KT 10SM CLR 28/17 A3007 RMK AO2 T02760167
Loading
Personal Weather Stations






























Interactive Weather Map
Tropical Storm Tracking
New forecast layout! Learn more

10-Day Weather Forecast

Advertisements
Track Severe Weather on mobile